M/T Goviken — 9HA2718 — position and weather

sailwx.info

Track history (hours):
 
Tides and Currents Weather Stations Pressure Air Temp Water Temp Dewpoint Dewpoint Depression Visibility Wind Speed Wind Dir Waves Ship Positions

M/T Goviken

Last reported at 2016-Oct-01 04:34 UTC. Time now 2016-Oct-01 12:09 UTC.
Position N 54°52' E 018°45'.

Length 88 m; draft 5.6 m.

Type: Ship (hazmat cat A). MMSI: 215389000.

Date/timePositionNaut miles runAvg speedWind from/ knotsBaromVisibWave heightAir tempDewpointWater temp
2016-Oct-01 04:34N 54°52' E 018°45'1110.8
2016-Oct-01 03:33N 54°45' E 018°60'20 6.7
2016-Oct-01 00:33N 54°32' E 018°33'0 0.0
2016-Sep-30 22:33N 54°32' E 018°33'0 0.0
2016-Sep-30 20:33N 54°32' E 018°33'0 0.0
2016-Sep-30 17:33N 54°32' E 018°33'0 0.0
2016-Sep-30 16:33N 54°32' E 018°33'0 0.0
2016-Sep-30 14:33N 54°32' E 018°33'0 0.0
2016-Sep-30 13:33N 54°32' E 018°33'0 0.0
2016-Sep-30 10:33N 54°32' E 018°33'0 0.0
2016-Sep-30 08:33N 54°32' E 018°33'0 0.0
2016-Sep-30 06:33N 54°32' E 018°33'5 1.6
2016-Sep-30 03:33N 54°31' E 018°41'0 0.0
2016-Sep-30 02:33N 54°31' E 018°41'0 0.0
2016-Sep-29 23:33N 54°31' E 018°41'0 0.1
2016-Sep-29 21:33N 54°31' E 018°41'0 0.0
2016-Sep-29 20:33N 54°31' E 018°41'0 0.0
2016-Sep-29 19:33N 54°31' E 018°41'0 0.0
2016-Sep-29 16:33N 54°31' E 018°41'0 0.0
2016-Sep-29 15:33N 54°31' E 018°41'0 0.0
2016-Sep-29 14:33N 54°31' E 018°41'0 0.0
2016-Sep-29 13:33N 54°31' E 018°41'25 5.0
2016-Sep-29 08:33N 54°55' E 018°30'1111.1
2016-Sep-29 07:33N 54°55' E 018°11'10910.8
2016-Sep-28 21:30N 54°39' E 015°05'2410.3
2016-Sep-28 19:11N 54°36' E 014°23'2910.8
2016-Sep-28 16:31N 54°50' E 013°40'4310.8
2016-Sep-28 12:33N 55°17' E 012°42'4310.8
2016-Sep-28 08:33N 56°00' E 012°37'85 9.4
2016-Sep-27 23:33N 57°17' E 011°31'36 8.9
2016-Sep-27 19:32N 57°45' E 010°49'183 9.6
2016-Sep-27 00:33N 58°24' E 005°11'37 9.2
2016-Sep-26 20:33N 59°00' E 005°12'9 9.4
2016-Sep-26 19:33N 59°07' E 005°25'8 0.3
2016-Sep-25 17:27N 59°14' E 005°30'0 0.0
2016-Sep-25 16:33N 59°14' E 005°30'0 0.0
2016-Sep-25 15:33N 59°14' E 005°30'0 0.0
2016-Sep-25 14:33N 59°14' E 005°30'0 0.0
2016-Sep-25 12:33N 59°14' E 005°31'0 0.0
2016-Sep-25 11:33N 59°14' E 005°30'0 0.0
2016-Sep-25 10:33N 59°14' E 005°30'0 0.0
2016-Sep-25 09:33N 59°14' E 005°30'0 0.0
2016-Sep-25 07:33N 59°14' E 005°31'2 0.8
2016-Sep-25 04:33N 59°12' E 005°32'38 9.5
2016-Sep-25 00:33N 58°36' E 005°05'25910.6
2016-Sep-24 00:04N 54°18' E 005°12'7111.0
2016-Sep-23 17:33N 53°11' E 004°31'1110.9
2016-Sep-23 16:33N 53°01' E 004°23'1210.8
2016-Sep-23 15:26N 52°50' E 004°13'9510.7
2016-Sep-23 06:33N 51°40' E 002°29'2512.3
2016-Sep-23 04:33N 51°20' E 002°08'1211.9
2016-Sep-23 03:33N 51°11' E 001°55'1212.3
2016-Sep-23 02:33N 51°03' E 001°40'1111.4
2016-Sep-23 01:33N 50°55' E 001°27'99 7.6
2016-Sep-22 12:34N 49°29' E 000°10'1 0.1
2016-Sep-22 04:32N 49°29' E 000°12'0 0.0
2016-Sep-22 03:32N 49°29' E 000°12'0 0.0
2016-Sep-22 00:33N 49°29' E 000°12'0 0.0
2016-Sep-21 23:32N 49°29' E 000°12'0 0.0
2016-Sep-21 22:32N 49°29' E 000°12'0 0.0
2016-Sep-21 19:33N 49°29' E 000°12'0 0.0
2016-Sep-21 16:32N 49°29' E 000°12'0 0.1
2016-Sep-21 09:34N 49°29' E 000°12'1 1.0
2016-Sep-21 08:34N 49°28' E 000°10'10 3.2
2016-Sep-21 05:32N 49°29' W 000°05'  
Track history (hours):
 
Tides and Currents Weather Stations Pressure Air Temp Water Temp Dewpoint Dewpoint Depression Visibility Wind Speed Wind Dir Waves Ship Positions

M/T Goviken

Last reported at 2016-Oct-01 04:34 UTC. Time now 2016-Oct-01 12:10 UTC.
Position N 54°52' E 018°45'.

Length 88 m; draft 5.6 m.

Type: Ship (hazmat cat A). MMSI: 215389000.

Date/timePositionNaut miles runAvg speedWind from/ knotsBaromVisibWave heightAir tempDewpointWater temp
2016-Oct-01 04:34N 54°52' E 018°45'1110.8
2016-Oct-01 03:33N 54°45' E 018°60'20 6.7
2016-Oct-01 00:33N 54°32' E 018°33'0 0.0
2016-Sep-30 22:33N 54°32' E 018°33'0 0.0
2016-Sep-30 20:33N 54°32' E 018°33'0 0.0
2016-Sep-30 17:33N 54°32' E 018°33'0 0.0
2016-Sep-30 16:33N 54°32' E 018°33'0 0.0
2016-Sep-30 14:33N 54°32' E 018°33'0 0.0
2016-Sep-30 13:33N 54°32' E 018°33'0 0.0
2016-Sep-30 10:33N 54°32' E 018°33'0 0.0
2016-Sep-30 08:33N 54°32' E 018°33'0 0.0
2016-Sep-30 06:33N 54°32' E 018°33'5 1.6
2016-Sep-30 03:33N 54°31' E 018°41'0 0.0
2016-Sep-30 02:33N 54°31' E 018°41'0 0.0
2016-Sep-29 23:33N 54°31' E 018°41'0 0.1
2016-Sep-29 21:33N 54°31' E 018°41'0 0.0
2016-Sep-29 20:33N 54°31' E 018°41'0 0.0
2016-Sep-29 19:33N 54°31' E 018°41'0 0.0
2016-Sep-29 16:33N 54°31' E 018°41'0 0.0
2016-Sep-29 15:33N 54°31' E 018°41'0 0.0
2016-Sep-29 14:33N 54°31' E 018°41'0 0.0
2016-Sep-29 13:33N 54°31' E 018°41'25 5.0
2016-Sep-29 08:33N 54°55' E 018°30'1111.1
2016-Sep-29 07:33N 54°55' E 018°11'10910.8
2016-Sep-28 21:30N 54°39' E 015°05'2410.3
2016-Sep-28 19:11N 54°36' E 014°23'2910.8
2016-Sep-28 16:31N 54°50' E 013°40'4310.8
2016-Sep-28 12:33N 55°17' E 012°42'4310.8
2016-Sep-28 08:33N 56°00' E 012°37'85 9.4
2016-Sep-27 23:33N 57°17' E 011°31'36 8.9
2016-Sep-27 19:32N 57°45' E 010°49'183 9.6
2016-Sep-27 00:33N 58°24' E 005°11'37 9.2
2016-Sep-26 20:33N 59°00' E 005°12'9 9.4
2016-Sep-26 19:33N 59°07' E 005°25'8 0.3
2016-Sep-25 17:27N 59°14' E 005°30'0 0.0
2016-Sep-25 16:33N 59°14' E 005°30'0 0.0
2016-Sep-25 15:33N 59°14' E 005°30'0 0.0
2016-Sep-25 14:33N 59°14' E 005°30'0 0.0
2016-Sep-25 12:33N 59°14' E 005°31'0 0.0
2016-Sep-25 11:33N 59°14' E 005°30'0 0.0
2016-Sep-25 10:33N 59°14' E 005°30'0 0.0
2016-Sep-25 09:33N 59°14' E 005°30'0 0.0
2016-Sep-25 07:33N 59°14' E 005°31'2 0.8
2016-Sep-25 04:33N 59°12' E 005°32'38 9.5
2016-Sep-25 00:33N 58°36' E 005°05'25910.6
2016-Sep-24 00:04N 54°18' E 005°12'7111.0
2016-Sep-23 17:33N 53°11' E 004°31'1110.9
2016-Sep-23 16:33N 53°01' E 004°23'1210.8
2016-Sep-23 15:26N 52°50' E 004°13'9510.7
2016-Sep-23 06:33N 51°40' E 002°29'2512.3
2016-Sep-23 04:33N 51°20' E 002°08'1211.9
2016-Sep-23 03:33N 51°11' E 001°55'1212.3
2016-Sep-23 02:33N 51°03' E 001°40'1111.4
2016-Sep-23 01:33N 50°55' E 001°27'99 7.6
2016-Sep-22 12:34N 49°29' E 000°10'1 0.1
2016-Sep-22 04:32N 49°29' E 000°12'0 0.0
2016-Sep-22 03:32N 49°29' E 000°12'0 0.0
2016-Sep-22 00:33N 49°29' E 000°12'0 0.0
2016-Sep-21 23:32N 49°29' E 000°12'0 0.0
2016-Sep-21 22:32N 49°29' E 000°12'0 0.0
2016-Sep-21 19:33N 49°29' E 000°12'0 0.0
2016-Sep-21 16:32N 49°29' E 000°12'0 0.1
2016-Sep-21 09:34N 49°29' E 000°12'1 1.0
2016-Sep-21 08:34N 49°28' E 000°10'10 3.2
2016-Sep-21 05:32N 49°29' W 000°05'  

Dump ship's entire track history